sensor_id;sensor_type;location;lat;lon;timestamp;pressure;altitude;pressure_sealevel;temperature;humidity
26775;BME280;14362;51.902;7.626;2022-07-29T00:02:22;101094.91;;;18.55;62.25
26775;BME280;14362;51.902;7.626;2022-07-29T00:06:24;101077.00;;;18.48;62.42
26775;BME280;14362;51.902;7.626;2022-07-29T00:10:25;101077.81;;;18.49;62.63
26775;BME280;14362;51.902;7.626;2022-07-29T00:14:28;101071.97;;;18.42;64.19
26775;BME280;14362;51.902;7.626;2022-07-29T00:18:30;101063.09;;;18.40;63.07
26775;BME280;14362;51.902;7.626;2022-07-29T00:22:31;101047.63;;;18.34;63.80
26775;BME280;14362;51.902;7.626;2022-07-29T00:26:33;101057.28;;;18.33;64.42
26775;BME280;14362;51.902;7.626;2022-07-29T00:30:36;101051.56;;;18.29;65.38
26775;BME280;14362;51.902;7.626;2022-07-29T00:34:37;101050.72;;;18.29;65.03
26775;BME280;14362;51.902;7.626;2022-07-29T00:38:56;101040.06;;;18.22;67.04
26775;BME280;14362;51.902;7.626;2022-07-29T00:42:57;101044.06;;;18.21;67.50
26775;BME280;14362;51.902;7.626;2022-07-29T00:47:00;101035.81;;;18.13;66.23
26775;BME280;14362;51.902;7.626;2022-07-29T00:51:04;101038.56;;;18.09;66.79
26775;BME280;14362;51.902;7.626;2022-07-29T00:55:08;101040.00;;;18.03;66.10
26775;BME280;14362;51.902;7.626;2022-07-29T00:59:09;101037.91;;;18.00;67.50
26775;BME280;14362;51.902;7.626;2022-07-29T01:03:12;101028.56;;;17.96;67.81
26775;BME280;14362;51.902;7.626;2022-07-29T01:07:14;101022.09;;;17.96;67.87
26775;BME280;14362;51.902;7.626;2022-07-29T01:11:16;101010.75;;;17.92;68.49
26775;BME280;14362;51.902;7.626;2022-07-29T01:15:19;100996.66;;;17.92;67.69
26775;BME280;14362;51.902;7.626;2022-07-29T01:19:45;100995.34;;;17.90;68.26
26775;BME280;14362;51.902;7.626;2022-07-29T01:24:11;100988.47;;;17.87;69.58
26775;BME280;14362;51.902;7.626;2022-07-29T01:28:36;100985.47;;;17.80;67.72
26775;BME280;14362;51.902;7.626;2022-07-29T01:32:40;100977.00;;;17.80;67.98
26775;BME280;14362;51.902;7.626;2022-07-29T01:36:45;100974.44;;;17.75;68.39
26775;BME280;14362;51.902;7.626;2022-07-29T01:40:51;100981.00;;;17.79;67.84
26775;BME280;14362;51.902;7.626;2022-07-29T01:44:57;100976.84;;;17.73;69.04
26775;BME280;14362;51.902;7.626;2022-07-29T01:49:06;100980.09;;;17.75;68.08
26775;BME280;14362;51.902;7.626;2022-07-29T01:53:10;100975.94;;;17.69;68.44
26775;BME280;14362;51.902;7.626;2022-07-29T01:57:15;100971.75;;;17.79;67.82
26775;BME280;14362;51.902;7.626;2022-07-29T02:01:19;100954.13;;;17.66;68.80
26775;BME280;14362;51.902;7.626;2022-07-29T02:05:23;100963.38;;;17.67;70.39
26775;BME280;14362;51.902;7.626;2022-07-29T02:09:26;100976.22;;;17.64;70.24
26775;BME280;14362;51.902;7.626;2022-07-29T02:13:31;100971.31;;;17.61;69.37
26775;BME280;14362;51.902;7.626;2022-07-29T02:17:37;100954.75;;;17.60;70.06
26775;BME280;14362;51.902;7.626;2022-07-29T02:21:41;100953.00;;;17.55;69.47
26775;BME280;14362;51.902;7.626;2022-07-29T02:25:44;100949.41;;;17.55;69.45
26775;BME280;14362;51.902;7.626;2022-07-29T02:29:50;100950.97;;;17.52;68.98
26775;BME280;14362;51.902;7.626;2022-07-29T02:33:54;100945.03;;;17.57;68.38
26775;BME280;14362;51.902;7.626;2022-07-29T02:37:56;100945.41;;;17.56;68.33
26775;BME280;14362;51.902;7.626;2022-07-29T02:42:16;100953.78;;;17.52;69.09
26775;BME280;14362;51.902;7.626;2022-07-29T02:46:23;100946.41;;;17.48;71.03
26775;BME280;14362;51.902;7.626;2022-07-29T02:50:32;100931.41;;;17.44;70.72
26775;BME280;14362;51.902;7.626;2022-07-29T02:54:39;100925.03;;;17.47;69.70
26775;BME280;14362;51.902;7.626;2022-07-29T02:58:46;100931.75;;;17.43;70.05
26775;BME280;14362;51.902;7.626;2022-07-29T03:02:52;100939.22;;;17.35;70.81
26775;BME280;14362;51.902;7.626;2022-07-29T03:06:58;100946.13;;;17.38;69.94
26775;BME280;14362;51.902;7.626;2022-07-29T03:11:01;100951.59;;;17.31;71.17
26775;BME280;14362;51.902;7.626;2022-07-29T03:15:03;100947.94;;;17.30;71.37
26775;BME280;14362;51.902;7.626;2022-07-29T03:19:05;100945.03;;;17.27;70.89
26775;BME280;14362;51.902;7.626;2022-07-29T03:23:08;100940.94;;;17.24;70.16
26775;BME280;14362;51.902;7.626;2022-07-29T03:27:10;100947.22;;;17.33;70.24
26775;BME280;14362;51.902;7.626;2022-07-29T03:31:12;100941.75;;;17.25;72.07
26775;BME280;14362;51.902;7.626;2022-07-29T03:35:13;100939.66;;;17.22;71.55
26775;BME280;14362;51.902;7.626;2022-07-29T03:39:20;100942.00;;;17.20;71.88
26775;BME280;14362;51.902;7.626;2022-07-29T03:43:23;100944.03;;;17.19;72.25
26775;BME280;14362;51.902;7.626;2022-07-29T03:47:28;100939.50;;;17.15;71.45
26775;BME280;14362;51.902;7.626;2022-07-29T03:51:31;100938.31;;;17.16;72.03
26775;BME280;14362;51.902;7.626;2022-07-29T03:55:37;100945.19;;;17.18;71.64
26775;BME280;14362;51.902;7.626;2022-07-29T03:59:41;100935.19;;;17.21;72.86
26775;BME280;14362;51.902;7.626;2022-07-29T04:03:44;100943.38;;;17.26;71.86
26775;BME280;14362;51.902;7.626;2022-07-29T04:07:47;100946.13;;;17.22;72.25
26775;BME280;14362;51.902;7.626;2022-07-29T04:11:50;100946.66;;;17.28;70.94
26775;BME280;14362;51.902;7.626;2022-07-29T04:15:52;100942.19;;;17.27;70.86
26775;BME280;14362;51.902;7.626;2022-07-29T04:19:53;100930.47;;;17.25;71.44
26775;BME280;14362;51.902;7.626;2022-07-29T04:23:54;100938.22;;;17.28;71.40
26775;BME280;14362;51.902;7.626;2022-07-29T04:27:57;100936.50;;;17.23;70.47
26775;BME280;14362;51.902;7.626;2022-07-29T04:32:01;100942.31;;;17.30;71.01
26775;BME280;14362;51.902;7.626;2022-07-29T04:36:03;100935.97;;;17.33;72.22
26775;BME280;14362;51.902;7.626;2022-07-29T04:40:06;100937.66;;;17.38;70.68
26775;BME280;14362;51.902;7.626;2022-07-29T04:44:09;100932.22;;;17.45;69.52
26775;BME280;14362;51.902;7.626;2022-07-29T04:48:11;100941.41;;;17.42;69.91
26775;BME280;14362;51.902;7.626;2022-07-29T04:52:12;100943.03;;;17.43;70.67
26775;BME280;14362;51.902;7.626;2022-07-29T04:56:14;100939.50;;;17.46;71.07
26775;BME280;14362;51.902;7.626;2022-07-29T05:00:17;100940.75;;;17.48;70.34
26775;BME280;14362;51.902;7.626;2022-07-29T05:04:18;100938.91;;;17.55;70.23
26775;BME280;14362;51.902;7.626;2022-07-29T05:08:20;100938.50;;;17.53;70.47
26775;BME280;14362;51.902;7.626;2022-07-29T05:12:21;100947.84;;;17.57;70.86
26775;BME280;14362;51.902;7.626;2022-07-29T05:16:24;100951.94;;;17.60;70.31
26775;BME280;14362;51.902;7.626;2022-07-29T05:20:25;100956.22;;;17.69;70.00
26775;BME280;14362;51.902;7.626;2022-07-29T05:24:28;100959.38;;;17.68;70.06
26775;BME280;14362;51.902;7.626;2022-07-29T05:28:32;100963.75;;;17.65;69.26
26775;BME280;14362;51.902;7.626;2022-07-29T05:32:35;100975.22;;;17.72;69.63
26775;BME280;14362;51.902;7.626;2022-07-29T05:36:37;100970.91;;;17.78;70.20
26775;BME280;14362;51.902;7.626;2022-07-29T05:40:38;100978.38;;;17.86;70.70
26775;BME280;14362;51.902;7.626;2022-07-29T05:44:39;100994.25;;;17.94;70.22
26775;BME280;14362;51.902;7.626;2022-07-29T05:48:42;100997.16;;;17.98;69.87
26775;BME280;14362;51.902;7.626;2022-07-29T05:52:44;100994.50;;;18.05;69.49
26775;BME280;14362;51.902;7.626;2022-07-29T05:56:45;101003.41;;;18.07;71.05
26775;BME280;14362;51.902;7.626;2022-07-29T06:00:46;101018.50;;;18.14;71.28
26775;BME280;14362;51.902;7.626;2022-07-29T06:04:49;101021.78;;;18.16;71.52
26775;BME280;14362;51.902;7.626;2022-07-29T06:08:51;101020.31;;;18.22;72.31
26775;BME280;14362;51.902;7.626;2022-07-29T06:12:52;101011.59;;;18.27;71.01
26775;BME280;14362;51.902;7.626;2022-07-29T06:16:54;101014.22;;;18.36;71.77
26775;BME280;14362;51.902;7.626;2022-07-29T06:20:57;101023.88;;;18.53;71.52
26775;BME280;14362;51.902;7.626;2022-07-29T06:24:58;101013.84;;;18.56;70.12
26775;BME280;14362;51.902;7.626;2022-07-29T06:29:00;101009.38;;;18.55;70.30
26775;BME280;14362;51.902;7.626;2022-07-29T06:33:02;101008.94;;;18.53;70.30
26775;BME280;14362;51.902;7.626;2022-07-29T06:37:07;101014.44;;;18.46;72.72
26775;BME280;14362;51.902;7.626;2022-07-29T06:41:08;101018.75;;;18.40;71.80
26775;BME280;14362;51.902;7.626;2022-07-29T06:45:12;101011.22;;;18.29;72.37
26775;BME280;14362;51.902;7.626;2022-07-29T06:49:14;101006.09;;;18.34;72.05
26775;BME280;14362;51.902;7.626;2022-07-29T06:53:17;101003.47;;;18.26;72.83
26775;BME280;14362;51.902;7.626;2022-07-29T06:57:18;101002.75;;;18.13;73.36
26775;BME280;14362;51.902;7.626;2022-07-29T07:01:19;101007.00;;;18.23;73.43
26775;BME280;14362;51.902;7.626;2022-07-29T07:05:21;101011.59;;;18.27;72.78
26775;BME280;14362;51.902;7.626;2022-07-29T07:09:24;101021.09;;;18.38;72.21
26775;BME280;14362;51.902;7.626;2022-07-29T07:13:25;101022.97;;;18.50;71.61
26775;BME280;14362;51.902;7.626;2022-07-29T07:17:28;101023.03;;;18.91;69.89
26775;BME280;14362;51.902;7.626;2022-07-29T07:21:29;101016.28;;;19.14;68.12
26775;BME280;14362;51.902;7.626;2022-07-29T07:25:32;101012.69;;;19.17;67.26
26775;BME280;14362;51.902;7.626;2022-07-29T07:29:34;101008.44;;;19.27;65.88
26775;BME280;14362;51.902;7.626;2022-07-29T07:33:35;101019.38;;;19.28;65.36
26775;BME280;14362;51.902;7.626;2022-07-29T07:37:38;101023.75;;;19.26;65.17
26775;BME280;14362;51.902;7.626;2022-07-29T07:41:41;101016.16;;;19.30;66.19
26775;BME280;14362;51.902;7.626;2022-07-29T07:45:43;101023.97;;;19.36;66.31
26775;BME280;14362;51.902;7.626;2022-07-29T07:49:44;101027.66;;;19.40;66.26
26775;BME280;14362;51.902;7.626;2022-07-29T07:53:46;101024.16;;;19.47;65.46
26775;BME280;14362;51.902;7.626;2022-07-29T07:57:51;101020.06;;;19.44;65.79
26775;BME280;14362;51.902;7.626;2022-07-29T08:01:52;101024.34;;;19.57;65.99
26775;BME280;14362;51.902;7.626;2022-07-29T08:05:54;101023.78;;;19.70;65.25
26775;BME280;14362;51.902;7.626;2022-07-29T08:09:55;101019.88;;;19.78;65.01
26775;BME280;14362;51.902;7.626;2022-07-29T08:13:58;101024.00;;;19.84;65.18
26775;BME280;14362;51.902;7.626;2022-07-29T08:18:03;101022.09;;;20.14;63.91
26775;BME280;14362;51.902;7.626;2022-07-29T08:22:04;101016.28;;;20.04;64.25
26775;BME280;14362;51.902;7.626;2022-07-29T08:26:06;101011.97;;;20.13;64.12
26775;BME280;14362;51.902;7.626;2022-07-29T08:30:12;101015.00;;;20.01;63.75
26775;BME280;14362;51.902;7.626;2022-07-29T08:34:14;101019.28;;;19.92;64.16
26775;BME280;14362;51.902;7.626;2022-07-29T08:38:16;101018.63;;;19.98;65.54
26775;BME280;14362;51.902;7.626;2022-07-29T08:42:17;101016.25;;;20.00;64.83
26775;BME280;14362;51.902;7.626;2022-07-29T08:46:21;101013.88;;;20.06;64.58
26775;BME280;14362;51.902;7.626;2022-07-29T08:50:22;101020.78;;;20.34;64.63
26775;BME280;14362;51.902;7.626;2022-07-29T08:54:24;101015.53;;;20.07;65.69
26775;BME280;14362;51.902;7.626;2022-07-29T08:58:26;101024.38;;;20.05;66.23
26775;BME280;14362;51.902;7.626;2022-07-29T09:02:36;101033.56;;;19.99;66.36
26775;BME280;14362;51.902;7.626;2022-07-29T09:06:43;101032.31;;;19.96;66.30
26775;BME280;14362;51.902;7.626;2022-07-29T09:10:45;101036.53;;;20.06;65.38
26775;BME280;14362;51.902;7.626;2022-07-29T09:14:47;101032.78;;;19.98;66.22
26775;BME280;14362;51.902;7.626;2022-07-29T09:18:49;101019.34;;;19.95;67.26
26775;BME280;14362;51.902;7.626;2022-07-29T09:22:51;101011.38;;;20.01;67.65
26775;BME280;14362;51.902;7.626;2022-07-29T09:26:53;101003.38;;;20.06;67.46
26775;BME280;14362;51.902;7.626;2022-07-29T09:30:57;101010.88;;;20.21;66.75
26775;BME280;14362;51.902;7.626;2022-07-29T09:35:17;101018.44;;;20.40;65.27
26775;BME280;14362;51.902;7.626;2022-07-29T09:39:28;101019.34;;;20.47;66.23
26775;BME280;14362;51.902;7.626;2022-07-29T09:43:30;101026.06;;;20.65;66.52
26775;BME280;14362;51.902;7.626;2022-07-29T09:47:41;101025.78;;;20.73;65.15
26775;BME280;14362;51.902;7.626;2022-07-29T09:51:46;101025.31;;;21.01;64.38
26775;BME280;14362;51.902;7.626;2022-07-29T09:55:48;101026.28;;;21.12;64.20
26775;BME280;14362;51.902;7.626;2022-07-29T09:59:56;101013.59;;;21.39;64.51
26775;BME280;14362;51.902;7.626;2022-07-29T10:03:58;101005.00;;;21.71;64.92
26775;BME280;14362;51.902;7.626;2022-07-29T10:08:01;101003.84;;;21.76;64.85
26775;BME280;14362;51.902;7.626;2022-07-29T10:12:04;100992.00;;;21.67;65.89
26775;BME280;14362;51.902;7.626;2022-07-29T10:16:08;100997.25;;;21.65;66.58
26775;BME280;14362;51.902;7.626;2022-07-29T10:20:10;101000.47;;;21.60;68.01
26775;BME280;14362;51.902;7.626;2022-07-29T10:24:13;100996.75;;;21.56;69.63
26775;BME280;14362;51.902;7.626;2022-07-29T10:28:14;101005.97;;;21.46;69.10
26775;BME280;14362;51.902;7.626;2022-07-29T10:32:28;101013.94;;;21.34;68.75
26775;BME280;14362;51.902;7.626;2022-07-29T10:36:44;101021.06;;;21.17;70.45
26775;BME280;14362;51.902;7.626;2022-07-29T10:40:57;101012.19;;;20.86;71.55
26775;BME280;14362;51.902;7.626;2022-07-29T10:45:19;101016.94;;;20.78;73.25
26775;BME280;14362;51.902;7.626;2022-07-29T10:49:22;101015.59;;;20.69;74.79
26775;BME280;14362;51.902;7.626;2022-07-29T10:53:47;101013.41;;;20.30;76.46
26775;BME280;14362;51.902;7.626;2022-07-29T10:58:10;101003.66;;;20.24;76.46
26775;BME280;14362;51.902;7.626;2022-07-29T11:02:45;100998.28;;;19.93;77.23
26775;BME280;14362;51.902;7.626;2022-07-29T11:07:12;101016.84;;;19.90;78.95
26775;BME280;14362;51.902;7.626;2022-07-29T11:11:34;101015.41;;;19.77;77.90
26775;BME280;14362;51.902;7.626;2022-07-29T11:20:34;101022.09;;;19.66;78.07
26775;BME280;14362;51.902;7.626;2022-07-29T11:24:36;101015.94;;;19.60;77.85
26775;BME280;14362;51.902;7.626;2022-07-29T11:28:48;101020.59;;;19.72;76.63
26775;BME280;14362;51.902;7.626;2022-07-29T11:32:51;101021.78;;;19.71;76.69
26775;BME280;14362;51.902;7.626;2022-07-29T11:37:22;101027.03;;;19.72;77.68
26775;BME280;14362;51.902;7.626;2022-07-29T11:41:26;101020.13;;;19.48;79.57
26775;BME280;14362;51.902;7.626;2022-07-29T11:45:45;101013.88;;;19.58;82.85
26775;BME280;14362;51.902;7.626;2022-07-29T11:49:47;101020.63;;;19.12;85.41
26775;BME280;14362;51.902;7.626;2022-07-29T11:53:51;101013.47;;;18.95;90.75
26775;BME280;14362;51.902;7.626;2022-07-29T11:57:54;101015.00;;;18.93;90.05
26775;BME280;14362;51.902;7.626;2022-07-29T12:01:57;101009.81;;;18.76;92.11
26775;BME280;14362;51.902;7.626;2022-07-29T12:05:58;101006.66;;;18.77;91.98
26775;BME280;14362;51.902;7.626;2022-07-29T12:10:02;101009.97;;;18.83;93.56
26775;BME280;14362;51.902;7.626;2022-07-29T12:14:04;101000.44;;;18.91;91.25
26775;BME280;14362;51.902;7.626;2022-07-29T12:18:16;100987.22;;;18.95;89.68
26775;BME280;14362;51.902;7.626;2022-07-29T12:22:24;100981.25;;;19.00;90.78
26775;BME280;14362;51.902;7.626;2022-07-29T12:26:28;100978.78;;;18.98;90.65
26775;BME280;14362;51.902;7.626;2022-07-29T12:30:38;100990.75;;;19.11;90.26
26775;BME280;14362;51.902;7.626;2022-07-29T12:34:40;100995.38;;;19.19;90.77
26775;BME280;14362;51.902;7.626;2022-07-29T12:38:41;100993.88;;;19.25;90.58
26775;BME280;14362;51.902;7.626;2022-07-29T12:43:05;101006.44;;;19.50;89.72
26775;BME280;14362;51.902;7.626;2022-07-29T12:47:07;101000.16;;;19.37;88.91
26775;BME280;14362;51.902;7.626;2022-07-29T12:51:10;101002.66;;;19.42;88.87
26775;BME280;14362;51.902;7.626;2022-07-29T12:55:13;100995.31;;;19.60;88.54
26775;BME280;14362;51.902;7.626;2022-07-29T12:59:18;100994.16;;;19.64;88.60
26775;BME280;14362;51.902;7.626;2022-07-29T13:03:20;100993.53;;;19.74;88.98
26775;BME280;14362;51.902;7.626;2022-07-29T13:07:24;100991.38;;;19.90;88.96
26775;BME280;14362;51.902;7.626;2022-07-29T13:11:29;100991.81;;;19.92;89.31
26775;BME280;14362;51.902;7.626;2022-07-29T13:15:33;100996.00;;;19.98;87.84
26775;BME280;14362;51.902;7.626;2022-07-29T13:19:36;101000.38;;;20.22;87.85
26775;BME280;14362;51.902;7.626;2022-07-29T13:23:40;100983.63;;;20.39;87.17
26775;BME280;14362;51.902;7.626;2022-07-29T13:27:42;100982.91;;;20.75;86.82
26775;BME280;14362;51.902;7.626;2022-07-29T13:31:47;100994.56;;;20.99;83.34
26775;BME280;14362;51.902;7.626;2022-07-29T13:35:48;101000.47;;;21.24;81.01
26775;BME280;14362;51.902;7.626;2022-07-29T13:39:50;100981.22;;;21.43;79.53
26775;BME280;14362;51.902;7.626;2022-07-29T13:43:52;100982.66;;;21.63;78.62
26775;BME280;14362;51.902;7.626;2022-07-29T13:47:55;100993.84;;;21.92;77.12
26775;BME280;14362;51.902;7.626;2022-07-29T13:51:56;100985.63;;;21.80;75.16
26775;BME280;14362;51.902;7.626;2022-07-29T13:55:58;100983.75;;;21.98;75.62
26775;BME280;14362;51.902;7.626;2022-07-29T13:59:59;100973.38;;;22.23;72.08
26775;BME280;14362;51.902;7.626;2022-07-29T14:04:02;100976.75;;;22.46;71.13
26775;BME280;14362;51.902;7.626;2022-07-29T14:08:03;100971.06;;;22.46;70.32
26775;BME280;14362;51.902;7.626;2022-07-29T14:12:05;100969.59;;;22.76;68.88
26775;BME280;14362;51.902;7.626;2022-07-29T14:16:07;100972.03;;;22.78;67.91
26775;BME280;14362;51.902;7.626;2022-07-29T14:20:10;100966.06;;;23.07;67.29
26775;BME280;14362;51.902;7.626;2022-07-29T14:24:12;100968.94;;;23.21;65.51
26775;BME280;14362;51.902;7.626;2022-07-29T14:28:13;100964.06;;;23.29;64.80
26775;BME280;14362;51.902;7.626;2022-07-29T14:32:14;100973.44;;;23.50;61.31
26775;BME280;14362;51.902;7.626;2022-07-29T14:36:17;100973.03;;;23.45;62.82
26775;BME280;14362;51.902;7.626;2022-07-29T14:40:19;100968.19;;;23.66;62.06
26775;BME280;14362;51.902;7.626;2022-07-29T14:44:20;100965.75;;;23.85;60.47
26775;BME280;14362;51.902;7.626;2022-07-29T14:48:21;100967.78;;;23.99;59.49
26775;BME280;14362;51.902;7.626;2022-07-29T14:52:24;100964.94;;;23.88;59.51
26775;BME280;14362;51.902;7.626;2022-07-29T14:56:26;100968.59;;;23.89;59.54
26775;BME280;14362;51.902;7.626;2022-07-29T15:00:29;100971.44;;;23.96;60.56
26775;BME280;14362;51.902;7.626;2022-07-29T15:04:32;100975.03;;;24.24;59.18
26775;BME280;14362;51.902;7.626;2022-07-29T15:08:35;100972.97;;;24.39;56.63
26775;BME280;14362;51.902;7.626;2022-07-29T15:12:36;100966.09;;;24.19;57.17
26775;BME280;14362;51.902;7.626;2022-07-29T15:16:38;100969.75;;;24.33;57.46
26775;BME280;14362;51.902;7.626;2022-07-29T15:20:42;100965.66;;;24.31;57.18
26775;BME280;14362;51.902;7.626;2022-07-29T15:24:46;100966.06;;;24.40;57.13
26775;BME280;14362;51.902;7.626;2022-07-29T15:28:47;100960.78;;;24.28;57.38
26775;BME280;14362;51.902;7.626;2022-07-29T15:32:49;100972.16;;;24.35;55.33
26775;BME280;14362;51.902;7.626;2022-07-29T15:36:51;100967.28;;;24.49;54.53
26775;BME280;14362;51.902;7.626;2022-07-29T15:40:53;100966.34;;;24.73;54.00
26775;BME280;14362;51.902;7.626;2022-07-29T15:44:55;100956.53;;;24.81;52.26
26775;BME280;14362;51.902;7.626;2022-07-29T15:48:56;100956.19;;;24.72;53.64
26775;BME280;14362;51.902;7.626;2022-07-29T15:52:58;100949.22;;;24.80;53.36
26775;BME280;14362;51.902;7.626;2022-07-29T15:57:02;100952.91;;;24.81;53.44
26775;BME280;14362;51.902;7.626;2022-07-29T16:01:03;100965.53;;;24.76;51.62
26775;BME280;14362;51.902;7.626;2022-07-29T16:05:05;100956.19;;;24.72;52.87
26775;BME280;14362;51.902;7.626;2022-07-29T16:09:07;100957.38;;;24.82;53.44
26775;BME280;14362;51.902;7.626;2022-07-29T16:13:09;100952.88;;;24.84;51.67
26775;BME280;14362;51.902;7.626;2022-07-29T16:17:11;100947.97;;;24.85;51.02
26775;BME280;14362;51.902;7.626;2022-07-29T16:21:12;100942.38;;;24.67;51.95
26775;BME280;14362;51.902;7.626;2022-07-29T16:25:14;100951.75;;;24.64;51.83
26775;BME280;14362;51.902;7.626;2022-07-29T16:29:17;100952.56;;;24.61;52.54
26775;BME280;14362;51.902;7.626;2022-07-29T16:33:18;100946.06;;;24.61;52.01
26775;BME280;14362;51.902;7.626;2022-07-29T16:37:20;100948.53;;;24.52;53.92
26775;BME280;14362;51.902;7.626;2022-07-29T16:41:21;100948.94;;;24.47;54.06
26775;BME280;14362;51.902;7.626;2022-07-29T16:45:24;100953.81;;;24.39;54.13
26775;BME280;14362;51.902;7.626;2022-07-29T16:49:26;100956.25;;;24.44;55.25
26775;BME280;14362;51.902;7.626;2022-07-29T16:53:28;100955.84;;;24.42;55.56
26775;BME280;14362;51.902;7.626;2022-07-29T16:57:29;100963.19;;;24.43;56.65
26775;BME280;14362;51.902;7.626;2022-07-29T17:01:32;100961.56;;;24.42;57.89
26775;BME280;14362;51.902;7.626;2022-07-29T17:05:34;100958.38;;;24.19;58.06
26775;BME280;14362;51.902;7.626;2022-07-29T17:09:36;100962.44;;;24.18;58.25
26775;BME280;14362;51.902;7.626;2022-07-29T17:13:37;100959.19;;;24.13;59.09
26775;BME280;14362;51.902;7.626;2022-07-29T17:17:40;100964.53;;;24.04;60.63
26775;BME280;14362;51.902;7.626;2022-07-29T17:21:41;100970.59;;;24.02;59.66
26775;BME280;14362;51.902;7.626;2022-07-29T17:25:43;100959.63;;;23.97;58.89
26775;BME280;14362;51.902;7.626;2022-07-29T17:29:45;100964.53;;;23.93;60.45
26775;BME280;14362;51.902;7.626;2022-07-29T17:33:47;100964.16;;;23.78;61.03
26775;BME280;14362;51.902;7.626;2022-07-29T17:37:49;100962.88;;;23.72;61.56
26775;BME280;14362;51.902;7.626;2022-07-29T17:41:50;100964.53;;;23.59;63.22
26775;BME280;14362;51.902;7.626;2022-07-29T17:45:52;100964.91;;;23.50;63.67
26775;BME280;14362;51.902;7.626;2022-07-29T17:49:55;100968.97;;;23.53;62.71
26775;BME280;14362;51.902;7.626;2022-07-29T17:53:56;100974.66;;;23.53;62.33
26775;BME280;14362;51.902;7.626;2022-07-29T17:57:58;100976.28;;;23.50;62.17
26775;BME280;14362;51.902;7.626;2022-07-29T18:01:59;100984.81;;;23.33;59.33
26775;BME280;14362;51.902;7.626;2022-07-29T18:06:02;100986.44;;;23.30;60.72
26775;BME280;14362;51.902;7.626;2022-07-29T18:10:04;100994.13;;;23.23;60.31
26775;BME280;14362;51.902;7.626;2022-07-29T18:14:06;101001.41;;;23.13;62.70
26775;BME280;14362;51.902;7.626;2022-07-29T18:18:08;100993.22;;;23.01;62.93
26775;BME280;14362;51.902;7.626;2022-07-29T18:22:10;100995.66;;;22.99;63.35
26775;BME280;14362;51.902;7.626;2022-07-29T18:26:13;101006.22;;;22.99;62.78
26775;BME280;14362;51.902;7.626;2022-07-29T18:30:14;101003.34;;;22.92;62.68
26775;BME280;14362;51.902;7.626;2022-07-29T18:34:16;101011.03;;;22.84;64.38
26775;BME280;14362;51.902;7.626;2022-07-29T18:38:19;100999.22;;;22.75;63.44
26775;BME280;14362;51.902;7.626;2022-07-29T18:42:21;101004.91;;;22.72;63.53
26775;BME280;14362;51.902;7.626;2022-07-29T18:46:22;101003.69;;;22.70;63.70
26775;BME280;14362;51.902;7.626;2022-07-29T18:50:24;101003.59;;;22.56;65.99
26775;BME280;14362;51.902;7.626;2022-07-29T18:54:27;101010.03;;;22.46;68.16
26775;BME280;14362;51.902;7.626;2022-07-29T18:58:29;101014.88;;;22.38;68.45
26775;BME280;14362;51.902;7.626;2022-07-29T19:02:32;101010.75;;;22.32;68.88
26775;BME280;14362;51.902;7.626;2022-07-29T19:06:34;101020.03;;;22.22;70.55
26775;BME280;14362;51.902;7.626;2022-07-29T19:10:37;101020.75;;;22.12;70.96
26775;BME280;14362;51.902;7.626;2022-07-29T19:14:39;101024.34;;;22.06;69.83
26775;BME280;14362;51.902;7.626;2022-07-29T19:18:40;101025.06;;;21.92;71.58
26775;BME280;14362;51.902;7.626;2022-07-29T19:22:42;101024.53;;;21.80;73.46
26775;BME280;14362;51.902;7.626;2022-07-29T19:26:45;101026.47;;;21.69;74.03
26775;BME280;14362;51.902;7.626;2022-07-29T19:30:46;101024.69;;;21.54;74.42
26775;BME280;14362;51.902;7.626;2022-07-29T19:34:48;101039.97;;;21.43;75.11
26775;BME280;14362;51.902;7.626;2022-07-29T19:39:03;101050.00;;;21.33;75.27
26775;BME280;14362;51.902;7.626;2022-07-29T19:43:06;101046.63;;;21.21;75.96
26775;BME280;14362;51.902;7.626;2022-07-29T19:47:08;101052.47;;;21.02;76.23
26775;BME280;14362;51.902;7.626;2022-07-29T19:51:10;101071.81;;;20.93;76.24
26775;BME280;14362;51.902;7.626;2022-07-29T19:55:11;101070.47;;;20.83;77.19
26775;BME280;14362;51.902;7.626;2022-07-29T19:59:15;101072.72;;;20.74;75.50
26775;BME280;14362;51.902;7.626;2022-07-29T20:03:16;101067.34;;;20.66;75.50
26775;BME280;14362;51.902;7.626;2022-07-29T20:07:17;101075.84;;;20.66;76.44
26775;BME280;14362;51.902;7.626;2022-07-29T20:11:19;101073.31;;;20.58;76.92
26775;BME280;14362;51.902;7.626;2022-07-29T20:15:22;101074.34;;;20.46;79.10
26775;BME280;14362;51.902;7.626;2022-07-29T20:19:23;101064.94;;;20.39;80.13
26775;BME280;14362;51.902;7.626;2022-07-29T20:23:25;101062.06;;;20.35;80.19
26775;BME280;14362;51.902;7.626;2022-07-29T20:27:26;101066.72;;;20.24;81.06
26775;BME280;14362;51.902;7.626;2022-07-29T20:31:30;101068.38;;;20.25;82.33
26775;BME280;14362;51.902;7.626;2022-07-29T20:35:32;101066.81;;;20.05;83.50
26775;BME280;14362;51.902;7.626;2022-07-29T20:39:33;101073.72;;;19.85;83.97
26775;BME280;14362;51.902;7.626;2022-07-29T20:43:35;101069.16;;;19.77;84.40
26775;BME280;14362;51.902;7.626;2022-07-29T20:47:38;101070.16;;;19.66;85.34
26775;BME280;14362;51.902;7.626;2022-07-29T20:51:39;101081.72;;;19.58;85.92
26775;BME280;14362;51.902;7.626;2022-07-29T20:55:41;101078.16;;;19.60;85.33
26775;BME280;14362;51.902;7.626;2022-07-29T20:59:42;101084.34;;;19.47;86.81
26775;BME280;14362;51.902;7.626;2022-07-29T21:03:45;101090.31;;;19.42;87.34
26775;BME280;14362;51.902;7.626;2022-07-29T21:07:46;101091.00;;;19.36;87.83
26775;BME280;14362;51.902;7.626;2022-07-29T21:11:48;101090.56;;;19.34;87.41
26775;BME280;14362;51.902;7.626;2022-07-29T21:15:50;101091.16;;;19.43;87.49
26775;BME280;14362;51.902;7.626;2022-07-29T21:19:54;101100.13;;;19.48;88.02